Map

Track Data

SID SEASON NUMBER BASIN SUBBASIN NAME ISO_TIME NATURE LAT LON WMO_WIND WMO_PRES WMO_AGENCY TRACK_TYPE DIST2LAND LANDFALL IFLAG USA_AGENCY USA_ATCF_ID USA_LAT USA_LON USA_RECORD USA_STATUS USA_WIND USA_PRES USA_SSHS USA_R34_NE USA_R34_SE USA_R34_SW USA_R34_NW USA_R50_NE USA_R50_SE USA_R50_SW USA_R50_NW USA_R64_NE USA_R64_SE USA_R64_SW USA_R64_NW USA_POCI USA_ROCI USA_RMW USA_EYE TOKYO_LAT TOKYO_LON TOKYO_GRADE TOKYO_WIND TOKYO_PRES TOKYO_R50_DIR TOKYO_R50_LONG TOKYO_R50_SHORT TOKYO_R30_DIR TOKYO_R30_LONG TOKYO_R30_SHORT TOKYO_LAND CMA_LAT CMA_LON CMA_CAT CMA_WIND CMA_PRES HKO_LAT HKO_LON HKO_CAT HKO_WIND HKO_PRES NEWDELHI_LAT NEWDELHI_LON NEWDELHI_GRADE NEWDELHI_WIND NEWDELHI_PRES NEWDELHI_CI NEWDELHI_DP NEWDELHI_POCI REUNION_LAT REUNION_LON REUNION_TYPE REUNION_WIND REUNION_PRES REUNION_TNUM REUNION_CI REUNION_RMW REUNION_R34_NE REUNION_R34_SE REUNION_R34_SW REUNION_R34_NW REUNION_R50_NE REUNION_R50_SE REUNION_R50_SW REUNION_R50_NW REUNION_R64_NE REUNION_R64_SE REUNION_R64_SW REUNION_R64_NW BOM_LAT BOM_LON BOM_TYPE BOM_WIND BOM_PRES BOM_TNUM BOM_CI BOM_RMW BOM_R34_NE BOM_R34_SE BOM_R34_SW BOM_R34_NW BOM_R50_NE BOM_R50_SE BOM_R50_SW BOM_R50_NW BOM_R64_NE BOM_R64_SE BOM_R64_SW BOM_R64_NW BOM_ROCI BOM_POCI BOM_EYE BOM_POS_METHOD BOM_PRES_METHOD NADI_LAT NADI_LON NADI_CAT NADI_WIND NADI_PRES WELLINGTON_LAT WELLINGTON_LON WELLINGTON_WIND WELLINGTON_PRES DS824_LAT DS824_LON DS824_STAGE DS824_WIND DS824_PRES TD9636_LAT TD9636_LON TD9636_STAGE TD9636_WIND TD9636_PRES TD9635_LAT TD9635_LON TD9635_WIND TD9635_PRES TD9635_ROCI NEUMANN_LAT NEUMANN_LON NEUMANN_CLASS NEUMANN_WIND NEUMANN_PRES MLC_LAT MLC_LON MLC_CLASS MLC_WIND MLC_PRES USA_GUST BOM_GUST BOM_GUST_PER REUNION_GUST REUNION_GUST_PER USA_SEAHGT USA_SEARAD_NE USA_SEARAD_SE USA_SEARAD_SW USA_SEARAD_NW STORM_SPEED STORM_DIR
1967048S13164 1967 14 SP MM BARBARA 1967-02-17 02:00:00 NR -12.9000 163.700 1006 bom main 280 280 ______O_______ -1 -12.9000 163.700 1006 6 214
1967048S13164 1967 14 SP MM BARBARA 1967-02-17 03:00:00 NR -12.9864 163.640 main 284 284 ______P_______ -1 -12.9864 163.640 1005 6 207
1967048S13164 1967 14 SP MM BARBARA 1967-02-17 06:00:00 TS -13.2356 163.523 main 298 298 ______P_____O_ -1 -13.2474 163.465 1005 -13.2000 163.700 TC 20 1005 6 206
1967048S13164 1967 14 SP MM BARBARA 1967-02-17 09:00:00 TS -13.4901 163.384 main 325 325 ______P_____P_ -1 -13.5152 163.300 1004 -13.4400 163.553 TC 20 1004 4 204
1967048S13164 1967 14 SP MM BARBARA 1967-02-17 11:00:00 TS -13.5662 163.369 1004 bom main 335 325 ______O___O_P_ -1 -13.7000 163.200 1004 -12.9000 163.800 1 -13.6099 163.452 TC 20 1004 1 0
1967048S13164 1967 14 SP MM BARBARA 1967-02-17 12:00:00 TS -13.5470 163.404 main 325 325 O_____P__OP_O_ jtwc_sh SH191967 -13.1000 163.700 -1 -13.7948 163.154 1004 -13.1000 163.700 TC -13.0661 163.716 1 -13.7000 163.400 TC 20 1004 5 200
1967048S13164 1967 14 SP MM BARBARA 1967-02-17 15:00:00 TS -13.8642 163.259 main 359 359 P_____P__PP_P_ SH191967 -13.6200 163.453 -1 -14.0877 163.028 1004 -13.6200 163.453 TC -13.5612 163.464 1 -13.9925 163.243 TC 20 1004 8 204
1967048S13164 1967 14 SP MM BARBARA 1967-02-17 18:00:00 TS -14.2263 163.087 main 372 370 O_____P__OP_O_ jtwc_sh SH191967 -14.1000 163.200 -1 -14.3897 162.911 1004 -14.1000 163.200 TC -14.0445 163.212 1 -14.3000 163.100 TC 20 1004 8 206
1967048S13164 1967 14 SP MM BARBARA 1967-02-17 21:00:00 TS -14.5896 162.901 main 388 387 P_____P__PP_P_ SH191967 -14.5150 162.942 -1 -14.6959 162.789 1004 -14.5150 162.942 TC -14.5072 162.964 1 -14.6000 163.007 TC 20 1004 8 207
1967048S13164 1967 14 SP MM BARBARA 1967-02-17 23:00:00 TS -14.8243 162.775 1004 bom main 397 397 P_____O__PO_P_ SH191967 -14.7719 162.778 -1 -14.9000 162.700 1004 -14.7719 162.778 TC -14.8000 162.800 1 -14.8000 162.942 TC 20 1004 8 207
1967048S13164 1967 14 SP MM BARBARA 1967-02-18 00:00:00 TS -14.9397 162.711 main 408 408 O_____P__OP_O_ jtwc_sh SH191967 -14.9000 162.700 -1 -14.9975 162.648 1004 -14.9000 162.700 TC -14.9408 162.719 1 -14.9000 162.900 TC 20 1004 8 208
1967048S13164 1967 14 SP MM BARBARA 1967-02-18 03:00:00 TS -15.2897 162.517 main 433 433 P_____P__PP_P_ SH191967 -15.3074 162.500 -1 -15.2891 162.482 1004 -15.3074 162.500 TC -15.3424 162.481 1 -15.2000 162.708 TC 20 1004 8 209
1967048S13164 1967 14 SP MM BARBARA 1967-02-18 06:00:00 TS -15.6311 162.319 main 459 459 O_____P__OP_O_ jtwc_sh SH191967 -15.7000 162.300 -1 -15.5841 162.305 1004 -15.7000 162.300 TC -15.7173 162.252 1 -15.5000 162.500 TC 20 1004 8 210
1967048S13164 1967 14 SP MM BARBARA 1967-02-18 09:00:00 TS -15.9589 162.112 main 486 486 P_____P__PP_P_ SH191967 -16.0575 162.043 -1 -15.8886 162.122 1004 -16.0575 162.043 TC -16.0719 162.036 1 -15.7925 162.350 TC 20 1004 8 211
1967048S13164 1967 14 SP MM BARBARA 1967-02-18 11:00:00 TS -16.1766 161.977 1004 bom main 499 494 P_____O__PO_P_ SH191967 -16.2860 161.875 -1 -16.1000 162.000 1004 -16.2860 161.875 TC -16.3000 161.900 1 -15.9943 162.253 TC 20 1004 8 210
1967048S13164 1967 14 SP MM BARBARA 1967-02-18 12:00:00 TS -16.2865 161.912 main 494 470 O_____P__OP_O_ jtwc_sh SH191967 -16.4000 161.800 -1 -16.2087 161.942 1004 -16.4000 161.800 TC -16.4101 161.832 1 -16.1000 162.200 TC 20 1004 8 208
1967048S13164 1967 14 SP MM BARBARA 1967-02-18 15:00:00 TS -16.6269 161.733 main 475 444 P_____P__PP_P_ SH191967 -16.7574 161.635 -1 -16.5454 161.766 1004 -16.7574 161.635 TC -16.7273 161.640 1 -16.4425 162.000 TC 20 1004 8 206
1967048S13164 1967 14 SP MM BARBARA 1967-02-18 18:00:00 TS -16.9688 161.567 main 444 431 O_____P__OP_O_ jtwc_sh SH191967 -17.1000 161.500 -1 -16.8954 161.591 1004 -17.1000 161.500 TC -17.0396 161.462 1 -16.8000 161.800 TC 20 1004 7 205
1967048S13164 1967 14 SP MM BARBARA 1967-02-18 21:00:00 TS -17.2947 161.407 main 431 421 P_____P__PP_P_ SH191967 -17.3850 161.350 -1 -17.2557 161.417 1004 -17.3850 161.350 TC -17.3657 161.300 1 -17.1425 161.650 TC 20 1004 7 205
1967048S13164 1967 14 SP MM BARBARA 1967-02-18 23:00:00 TS -17.5210 161.302 1004 bom main 421 413 P_____O__PO_P_ SH191967 -17.5855 161.250 -1 -17.5000 161.300 1004 -17.5855 161.250 TC -17.6000 161.200 1 -17.3776 161.553 TC 20 1004 8 203
1967048S13164 1967 14 SP MM BARBARA 1967-02-19 00:00:00 TS -17.6427 161.249 main 421 398 O_____P__OP_O_ jtwc_sh SH191967 -17.7000 161.200 -1 -17.6216 161.242 1003 -17.7000 161.200 TC -17.7344 161.155 1 -17.5000 161.500 TC 20 1004 9 201
1967048S13164 1967 14 SP MM BARBARA 1967-02-19 03:00:00 TS -18.0480 161.087 main 398 379 P_____P__PP_P_ SH191967 -18.1350 161.050 -1 -17.9920 161.066 1003 -18.1350 161.050 TC -18.1620 161.033 1 -17.9000 161.300 TC 22 1003 9 200
1967048S13164 1967 14 SP MM BARBARA 1967-02-19 06:00:00 TS -18.4680 160.927 main 382 374 O_____P__OP_O_ jtwc_sh SH191967 -18.6000 160.900 -1 -18.3683 160.891 1002 -18.6000 160.900 TC -18.6048 160.919 1 -18.3000 161.100 TC 25 1003 9 200
1967048S13164 1967 14 SP MM BARBARA 1967-02-19 09:00:00 TS -18.8676 160.773 main 369 369 P_____P__PP_P_ SH191967 -19.0300 160.750 -1 -18.7473 160.717 1002 -19.0300 160.750 TC -19.0346 160.795 1 -18.6499 160.950 TC 25 1002 8 200
1967048S13164 1967 14 SP MM BARBARA 1967-02-19 11:00:00 TS -19.1206 160.669 1002 bom main 370 366 P_____O__PO_P_ SH191967 -19.2864 160.650 -1 -19.0000 160.600 1002 -19.2864 160.650 TC -19.3000 160.700 1 -18.8802 160.853 TC 25 1002 8 202
1967048S13164 1967 14 SP MM BARBARA 1967-02-19 12:00:00 TS -19.2360 160.616 main 376 369 O_____P__OP_O_ jtwc_sh SH191967 -19.4000 160.600 -1 -19.1151 160.546 1001 -19.4000 160.600 TC -19.4007 160.648 1 -19.0000 160.800 TC 25 1002 7 205
1967048S13164 1967 14 SP MM BARBARA 1967-02-19 15:00:00 TS -19.5475 160.456 main 376 376 P_____P__PP_P_ SH191967 -19.6499 160.465 -1 -19.4564 160.387 1001 -19.6499 160.465 TC -19.6688 160.477 1 -19.4000 160.600 TC 25 1001 7 207
1967048S13164 1967 14 SP MM BARBARA 1967-02-19 18:00:00 TS -19.8621 160.281 main 388 388 O_____P__OP_O_ jtwc_sh SH191967 -19.9000 160.300 -1 -19.8110 160.222 1000 -19.9000 160.300 TC -19.9294 160.283 1 -19.8000 160.400 TC 25 1001 8 207
1967048S13164 1967 14 SP MM BARBARA 1967-02-19 21:00:00 TS -20.2173 160.086 main 406 406 P_____P__PP_P_ SH191967 -20.2475 160.072 -1 -20.2042 160.039 1000 -20.2475 160.072 TC -20.2388 160.063 1 -20.1274 160.265 TC 27 1000 9 207
1967048S13164 1967 14 SP EA BARBARA 1967-02-19 23:00:00 TS -20.4956 159.937 1000 bom main 427 427 P_____O__PO_P_ SH191967 -20.5359 159.894 -1 -20.5000 159.900 1000 -20.5359 159.894 TC -20.5000 159.900 1 -20.3631 160.164 TC 29 1000 10 206
1967048S13164 1967 14 SP EA BARBARA 1967-02-20 00:00:00 TS -20.6523 159.857 main 429 429 O_____P__OP_O_ jtwc_sh SH191967 -20.7000 159.800 -1 -20.6524 159.827 1000 -20.7000 159.800 TC -20.6611 159.815 1 -20.5000 160.100 TC 30 1000 12 205
1967048S13164 1967 14 SP EA BARBARA 1967-02-20 03:00:00 TS -21.1865 159.588 main 468 468 P_____P__PP_P_ SH191967 -21.2625 159.507 -1 -21.1487 159.586 1000 -21.2625 159.507 TC -21.2145 159.537 1 -21.0126 159.815 TC 30 1000 13 205
1967048S13164 1967 14 SP EA BARBARA 1967-02-20 06:00:00 TS -21.7920 159.294 main 515 515 O_____P__OP_O_ jtwc_sh SH191967 -21.9000 159.200 -1 -21.7084 159.316 1000 -21.9000 159.200 TC -21.8486 159.234 1 -21.6000 159.500 TC 30 1000 14 204
1967048S13164 1967 14 SP EA BARBARA 1967-02-20 09:00:00 TS -22.4211 159.002 main 568 568 P_____P__PP_P_ SH191967 -22.5350 158.900 -1 -22.3381 159.016 1000 -22.5350 158.900 TC -22.5322 158.916 1 -22.1624 159.257 TC 30 1000 14 203
1967048S13164 1967 14 SP EA BARBARA 1967-02-20 11:00:00 TS -22.8657 158.801 1000 bom main 596 578 P_____O__PO_P_ SH191967 -22.9750 158.700 -1 -22.8000 158.800 1000 -22.9750 158.700 TC -23.0000 158.700 1 -22.5745 159.092 TC 30 1000 15 202
1967048S13164 1967 14 SP EA BARBARA 1967-02-20 12:00:00 TS -23.0975 158.699 main 578 523 O_____P__OP_O_ jtwc_sh SH191967 -23.2000 158.600 -1 -23.0523 158.690 999 -23.2000 158.600 TC -23.2329 158.601 1 -22.8000 159.000 TC 30 1000 16 202
1967048S13164 1967 14 SP EA BARBARA 1967-02-20 15:00:00 TS -23.8344 158.382 main 523 476 P_____P__PP_P_ SH191967 -23.8924 158.307 -1 -23.8608 158.339 998 -23.8924 158.307 TC -23.9524 158.301 1 -23.5775 158.672 TC 32 998 16 202
1967048S13164 1967 14 SP EA BARBARA 1967-02-20 18:00:00 TS -24.5932 158.041 main 466 443 O_____P__OP_O_ jtwc_sh SH191967 -24.6000 158.000 -1 -24.6836 157.961 996 -24.6000 158.000 TC -24.6764 157.987 1 -24.4000 158.300 TC 35 997 16 203
1967048S13164 1967 14 SP EA BARBARA 1967-02-20 20:00:00 TS -25.0905 157.802 996 bom main 443 433 P_____O__PP_P_ SH191967 -25.0828 157.785 -1 -25.2000 157.700 996 -25.0828 157.785 TC -25.1447 157.764 1 -24.9185 158.057 TC 35 996 16 204
1967048S13164 1967 14 SP EA BARBARA 1967-02-20 21:00:00 TS -25.3326 157.678 main 433 411 P_____P__PP_P_ SH191967 -25.3223 157.672 -1 -25.4395 157.574 996 -25.3223 157.672 TC -25.3707 157.647 1 -25.1722 157.929 TC 35 996 16 206
1967048S13164 1967 14 SP EA BARBARA 1967-02-20 23:00:00 TS -25.7990 157.413 996 bom main 411 403 P_____O__PO_P_ SH191967 -25.7837 157.431 -1 -25.9000 157.300 996 -25.7837 157.431 TC -25.8000 157.400 2 -25.6639 157.653 TC 35 996 16 208
1967048S13164 1967 14 SP EA BARBARA 1967-02-21 00:00:00 TS -26.0228 157.269 main 406 360 O_____P__OP_O_ jtwc_sh SH191967 -26.0000 157.300 -1 -26.1286 157.146 996 -26.0000 157.300 TC -26.0081 157.270 2 -25.9000 157.500 TC 35 996 15 213
1967048S13164 1967 14 SP EA BARBARA 1967-02-21 03:00:00 TS -26.6561 156.800 main 357 315 P_____P__PP_P_ SH191967 -26.5949 156.872 -1 -26.7887 156.611 996 -26.5949 156.872 TC -26.5946 156.856 2 -26.5797 156.994 TC 35 996 15 216
1967048S13164 1967 14 SP EA BARBARA 1967-02-21 05:00:00 TS -27.0394 156.450 996 bom main 315 288 P_____O__PP_P_ SH191967 -26.9416 156.561 -1 -27.2000 156.200 996 -26.9416 156.561 TC -26.9494 156.560 2 -26.9998 156.608 TC 35 996 15 220
1967048S13164 1967 14 SP EA BARBARA 1967-02-21 06:00:00 TS -27.2223 156.269 main 288 213 O_____P__OP_O_ jtwc_sh SH191967 -27.1000 156.400 -1 -27.4190 156.005 995 -27.1000 156.400 TC -27.1146 156.407 2 -27.2000 156.400 TC 35 996 14 224
1967048S13164 1967 14 SP EA BARBARA 1967-02-21 09:00:00 TS -27.7275 155.702 main 213 168 P_____P__PP_P_ SH191967 -27.5449 155.907 -1 -28.0175 155.346 993 -27.5449 155.907 TC -27.5558 155.930 2 -27.8248 155.731 TC 40 994 14 228
1967048S13164 1967 14 SP EA BARBARA 1967-02-21 11:00:00 TS -27.9952 155.303 992 bom main 168 147 P_____O__PO_P_ SH191967 -27.7916 155.569 -1 -28.3000 154.800 992 -27.7916 155.569 TC -27.8000 155.600 2 -28.1675 155.247 TC 43 992 13 235
1967048S13164 1967 14 SP EA BARBARA 1967-02-21 12:00:00 TS -28.0914 155.105 main 147 107 O_____P__OP_O_ jtwc_sh SH191967 -27.9000 155.400 -1 -28.3737 154.443 990 -27.9000 155.400 TC -27.9060 155.432 2 -28.3000 155.000 TC 45 992 13 245
1967048S13164 1967 14 SP EA BARBARA 1967-02-21 14:00:00 TS -28.2647 154.656 988 bom main 108 79 P_____O__PP_P_ SH191967 -28.0891 155.064 -1 -28.5000 153.800 988 -28.0891 155.064 TC -28.0884 155.090 2 -28.4690 154.463 TC 43 991 14 246
1967048S13164 1967 14 SP EA BARBARA 1967-02-21 15:00:00 TS -28.3644 154.403 987 bom main 81 22 P_____O__PP_P_ SH191967 -28.1728 154.898 -1 -28.6000 153.600 987 4 -28.1728 154.898 TC -28.1667 154.917 2 -28.5180 154.197 TC 42 991 12 249
1967048S13164 1967 14 SP EA BARBARA 1967-02-21 18:00:00 TS -28.5525 153.784 main 19 0 O_____P__OP_O_ jtwc_sh SH191967 -28.4000 154.400 -1 -28.7830 153.145 994 -28.4000 154.400 TC -28.3603 154.391 2 -28.6000 153.500 TC 40 991 11 253
1967048S13164 1967 14 SP EA BARBARA 1967-02-21 21:00:00 TS -28.6749 153.217 main 0 0 ______P___P_P_ SH191967 -1 -28.8165 152.801 1001 TC -28.5112 153.858 2 -28.6896 153.068 TC 32 998 9 256
1967048S13164 1967 14 SP EA BARBARA 1967-02-21 23:00:00 TS -28.7311 152.966 1006 bom main 0 0 ______O___O_P_ SH191967 -1 -28.8000 152.600 1006 TC -28.6000 153.500 2 -28.7622 152.881 TC 27 1003 8 251
1967048S13164 1967 14 SP EA BARBARA 1967-02-22 00:00:00 TS -28.8000 152.800 main 0 ____________O_ -1 2 -28.8000 152.800 TC 25 1006 10 244

Digital Typhoon Data and Search

About IBTrACS Database

This database is a web-friendly format of International Best Track Archive for Climate Stewardship (IBTrACS), a global best track data archive curated by NOAA dating back to 1842.

Updated: 2021-12-06